UTTT

Tashkent International Airport

Tashkent, Uzbekistan
TAF UTTT 181100Z 1812/1912 06010KT CAVOK TX37/1910Z TEMPO 1812/1820 30015KT 4000 FU
Issued Valid From Valid To
Jun-18 @ 11:00 UTC
(2 hours ago)
Jun-18 @ 12:00 UTC
(an hour ago)
Jun-19 @ 12:00 UTC
(in 23 hours)
Jun-18 @ 12:00 to Jun-19 @ 12:00
TAF UTTT 181100Z 1812/1912 06010KT CAVOK TX37/1910Z
Wind Visibility Clouds
60° at 10 knots 10,000+ meters
  • No significant clouds
Temporary Jun-18 @ 12:00 to Jun-18 @ 20:00
TEMPO 1812/1820 30015KT 4000 FU
Wind Visibility Conditions
300° at 15 knots 4,007 meters
  • Smoke
TAF UTTT 181100Z 1812/1912 06010KT CAVOK TX37/1910Z TEMPO 1812/1820 30015KT 4000 FU
Issued Jun-18 @ 11:00 UTC
(2 hours ago)
Valid From Jun-18 @ 12:00 UTC
(an hour ago)
Valid To Jun-19 @ 12:00 UTC
(in 23 hours)
Jun-18 @ 12:00 - Jun-19 @ 12:00
Wind Visibility
60° at 10 knots 10,000+ meters
Clouds
  • No significant clouds
Temporary Jun-18 @ 12:00 - Jun-18 @ 20:00
Wind Visibility
300° at 15 knots 4,007 meters
Conditions
  • Smoke